createdAt,value
2024-01-10T00:00:33.365Z,46.64
2024-01-10T00:01:23.478Z,46.55
2024-01-10T00:02:13.541Z,46.56
2024-01-10T00:03:03.529Z,46.65
2024-01-10T00:03:53.590Z,46.63
2024-01-10T00:04:43.759Z,46.52
2024-01-10T00:05:33.729Z,46.51
2024-01-10T00:06:23.780Z,46.53
2024-01-10T00:07:13.819Z,46.33
2024-01-10T00:08:03.991Z,46.53
2024-01-10T00:08:53.898Z,46.42
2024-01-10T00:09:43.955Z,46.28
2024-01-10T00:10:34.039Z,46.23
2024-01-10T00:11:24.168Z,46.11
2024-01-10T00:12:14.147Z,46.35
2024-01-10T00:13:04.187Z,46.47
2024-01-10T00:13:54.263Z,46.46
2024-01-10T00:14:44.273Z,46.30
2024-01-10T00:15:34.324Z,46.22
2024-01-10T00:16:24.380Z,46.39
2024-01-10T00:17:14.512Z,46.27
2024-01-10T00:18:04.688Z,46.46
2024-01-10T00:18:54.639Z,46.47
2024-01-10T00:19:44.673Z,46.55
2024-01-10T00:20:34.706Z,46.69
2024-01-10T00:21:24.745Z,46.76
2024-01-10T00:22:14.783Z,46.64
2024-01-10T00:23:04.900Z,46.73
2024-01-10T00:23:54.895Z,46.42
2024-01-10T00:24:44.976Z,46.52
2024-01-10T00:25:35.023Z,46.52
2024-01-10T00:26:25.059Z,46.49
2024-01-10T00:27:15.096Z,46.69
2024-01-10T00:28:05.169Z,46.61
2024-01-10T00:28:55.307Z,46.76
2024-01-10T00:29:46.255Z,46.68
2024-01-10T00:30:35.338Z,46.77
2024-01-10T00:31:25.360Z,46.76
2024-01-10T00:32:15.420Z,46.78
2024-01-10T00:33:05.591Z,46.76
2024-01-10T00:33:56.582Z,46.78
2024-01-10T00:34:45.545Z,46.76
2024-01-10T00:35:35.599Z,46.70
2024-01-10T00:36:25.669Z,46.65
2024-01-10T00:37:15.697Z,46.66
2024-01-10T00:38:05.759Z,46.79
2024-01-10T00:38:55.796Z,46.62
2024-01-10T00:39:45.808Z,46.60
2024-01-10T00:40:35.870Z,46.73
2024-01-10T00:41:26.007Z,46.73
2024-01-10T00:42:15.967Z,46.78
2024-01-10T00:43:06.025Z,46.85
2024-01-10T00:43:56.105Z,46.83
2024-01-10T00:44:46.134Z,46.78
2024-01-10T00:45:36.175Z,46.75
2024-01-10T00:46:26.264Z,46.88
2024-01-10T00:47:16.319Z,46.83
2024-01-10T00:48:06.407Z,46.79
2024-01-10T00:48:56.450Z,46.83
2024-01-10T00:49:46.524Z,46.84
2024-01-10T00:50:36.568Z,46.88
2024-01-10T00:51:26.673Z,46.89
2024-01-10T00:52:16.694Z,46.87
2024-01-10T00:53:06.747Z,46.81
2024-01-10T00:53:56.776Z,46.88
2024-01-10T00:54:46.823Z,46.91
2024-01-10T00:55:36.896Z,46.95
2024-01-10T00:56:26.960Z,46.85
2024-01-10T00:57:17.020Z,46.78
2024-01-10T00:58:07.053Z,46.69
2024-01-10T00:58:57.113Z,46.76
2024-01-10T00:59:47.121Z,46.69
2024-01-10T01:00:37.206Z,46.69
2024-01-10T01:01:27.238Z,46.73
2024-01-10T01:02:17.352Z,46.67
2024-01-10T01:03:07.348Z,46.65
2024-01-10T01:03:57.466Z,46.58
2024-01-10T01:04:47.572Z,46.53
2024-01-10T01:05:37.729Z,46.73
2024-01-10T01:06:27.653Z,46.77
2024-01-10T01:07:17.704Z,46.70
2024-01-10T01:08:07.790Z,46.80
2024-01-10T01:08:57.818Z,46.81
2024-01-10T01:09:47.860Z,46.79
2024-01-10T01:10:38.560Z,46.79
2024-01-10T01:11:28.158Z,46.79
2024-01-10T01:12:19.052Z,46.85
2024-01-10T01:13:08.102Z,46.76
2024-01-10T01:13:58.262Z,46.60
2024-01-10T01:14:48.173Z,46.61
2024-01-10T01:15:38.224Z,46.72
2024-01-10T01:16:28.285Z,46.75
2024-01-10T01:17:18.499Z,46.66
2024-01-10T01:18:08.574Z,46.66
2024-01-10T01:18:58.581Z,46.67
2024-01-10T01:19:48.610Z,46.88
2024-01-10T01:20:38.618Z,46.91
2024-01-10T01:21:28.696Z,46.94
2024-01-10T01:22:18.723Z,46.77
2024-01-10T01:23:08.797Z,46.81
2024-01-10T01:23:58.854Z,46.84
2024-01-10T01:24:48.896Z,46.85
2024-01-10T01:25:38.987Z,46.57
2024-01-10T01:26:29.025Z,46.69
2024-01-10T01:27:19.071Z,46.69
2024-01-10T01:28:09.082Z,46.84
2024-01-10T01:28:59.147Z,46.65
2024-01-10T01:29:49.157Z,46.69
2024-01-10T01:30:39.340Z,46.73
2024-01-10T01:31:29.373Z,46.75
2024-01-10T01:32:19.571Z,46.66
2024-01-10T01:33:09.627Z,46.50
2024-01-10T01:33:59.579Z,46.53
2024-01-10T01:34:49.630Z,46.58
2024-01-10T01:35:39.628Z,46.78
2024-01-10T01:36:29.694Z,46.68
2024-01-10T01:37:19.952Z,46.77
2024-01-10T01:38:10.087Z,46.63
2024-01-10T01:39:00.068Z,46.76
2024-01-10T01:39:50.107Z,46.77
2024-01-10T01:40:40.170Z,46.71
2024-01-10T01:41:30.205Z,46.65
2024-01-10T01:42:20.284Z,46.68
2024-01-10T01:43:10.288Z,46.73
2024-01-10T01:44:00.426Z,46.73
2024-01-10T01:44:50.438Z,46.81
2024-01-10T01:45:40.486Z,46.68
2024-01-10T01:46:30.569Z,46.74
2024-01-10T01:47:20.647Z,46.70
2024-01-10T01:48:10.758Z,46.75
2024-01-10T01:49:00.886Z,46.71
2024-01-10T01:49:50.934Z,46.75
2024-01-10T01:50:40.977Z,46.53
2024-01-10T01:51:30.995Z,46.60
2024-01-10T01:52:21.028Z,46.58
2024-01-10T01:53:11.149Z,46.63
2024-01-10T01:54:01.157Z,46.59
2024-01-10T01:54:51.178Z,46.78
2024-01-10T01:55:41.251Z,46.60
2024-01-10T01:56:31.280Z,46.58
2024-01-10T01:57:21.441Z,46.66
2024-01-10T01:58:11.506Z,46.57
2024-01-10T01:59:01.540Z,46.53
2024-01-10T01:59:51.596Z,46.55
2024-01-10T02:00:41.639Z,46.67
2024-01-10T02:01:31.687Z,46.78
2024-01-10T02:02:21.806Z,46.67
2024-01-10T02:03:11.967Z,46.72
2024-01-10T02:04:01.948Z,46.60
2024-01-10T02:04:51.989Z,46.79
2024-01-10T02:05:42.081Z,46.85
2024-01-10T02:06:32.028Z,46.77
2024-01-10T02:07:22.065Z,46.78
2024-01-10T02:08:12.168Z,46.81
2024-01-10T02:09:02.178Z,46.86
2024-01-10T02:09:52.234Z,46.76
2024-01-10T02:10:42.360Z,46.76
2024-01-10T02:11:32.399Z,46.87
2024-01-10T02:12:22.440Z,46.77
2024-01-10T02:13:12.542Z,46.80
2024-01-10T02:14:02.600Z,46.86
2024-01-10T02:14:52.577Z,46.87
2024-01-10T02:15:42.625Z,46.77
2024-01-10T02:16:32.680Z,46.82
2024-01-10T02:17:22.809Z,46.88
2024-01-10T02:18:12.886Z,46.91
2024-01-10T02:19:02.969Z,46.80
2024-01-10T02:19:52.976Z,46.97
2024-01-10T02:20:43.034Z,46.89
2024-01-10T02:21:33.093Z,46.83
2024-01-10T02:22:23.140Z,46.96
2024-01-10T02:23:13.264Z,47.06
2024-01-10T02:24:03.276Z,47.10
2024-01-10T02:24:53.301Z,46.99
2024-01-10T02:25:43.414Z,47.07
2024-01-10T02:26:33.433Z,47.06
2024-01-10T02:27:23.468Z,46.82
2024-01-10T02:28:13.492Z,46.93
2024-01-10T02:29:03.648Z,47.07
2024-01-10T02:29:53.740Z,47.06
2024-01-10T02:30:43.786Z,47.07
2024-01-10T02:31:33.948Z,46.96
2024-01-10T02:32:23.981Z,47.05
2024-01-10T02:33:13.971Z,47.14
2024-01-10T02:34:03.976Z,47.18
2024-01-10T02:34:53.939Z,47.17
2024-01-10T02:35:44.018Z,47.17
2024-01-10T02:36:34.079Z,47.11
2024-01-10T02:37:24.099Z,47.07
2024-01-10T02:38:14.281Z,47.11
2024-01-10T02:39:04.219Z,47.13
2024-01-10T02:39:54.235Z,47.10
2024-01-10T02:40:44.402Z,47.01
2024-01-10T02:41:34.441Z,47.03
2024-01-10T02:42:24.468Z,46.96
2024-01-10T02:43:14.502Z,46.93
2024-01-10T02:44:04.601Z,46.91
2024-01-10T02:44:54.612Z,46.79
2024-01-10T02:45:44.695Z,47.03
2024-01-10T02:46:34.742Z,46.93
2024-01-10T02:47:24.924Z,46.97
2024-01-10T02:48:15.046Z,47.01
2024-01-10T02:49:04.954Z,47.06
2024-01-10T02:49:54.999Z,46.94
2024-01-10T02:50:45.039Z,47.05
2024-01-10T02:51:35.091Z,47.15
2024-01-10T02:52:25.124Z,47.14
2024-01-10T02:53:15.250Z,47.10
2024-01-10T02:54:05.282Z,47.07
2024-01-10T02:54:55.311Z,47.14
2024-01-10T02:55:45.396Z,46.99
2024-01-10T02:56:35.440Z,46.87
2024-01-10T02:57:25.482Z,47.10
2024-01-10T02:58:15.527Z,47.07
2024-01-10T02:59:05.652Z,47.01
2024-01-10T02:59:55.616Z,47.12
2024-01-10T03:00:45.711Z,47.19
2024-01-10T03:01:35.826Z,47.18
2024-01-10T03:02:25.856Z,47.12
2024-01-10T03:03:15.912Z,47.08
2024-01-10T03:04:05.933Z,47.00
2024-01-10T03:04:55.990Z,47.12
2024-01-10T03:05:46.039Z,47.18
2024-01-10T03:06:36.068Z,47.24
2024-01-10T03:07:26.202Z,47.09
2024-01-10T03:08:16.331Z,47.04
2024-01-10T03:09:06.309Z,47.04
2024-01-10T03:09:56.338Z,47.07
2024-01-10T03:10:46.388Z,47.05
2024-01-10T03:11:36.417Z,47.06
2024-01-10T03:12:26.464Z,46.92
2024-01-10T03:13:16.513Z,47.03
2024-01-10T03:14:06.596Z,46.95
2024-01-10T03:14:56.623Z,46.97
2024-01-10T03:15:46.659Z,47.07
2024-01-10T03:16:36.714Z,47.04
2024-01-10T03:17:26.882Z,46.81
2024-01-10T03:18:16.930Z,46.90
2024-01-10T03:19:07.000Z,47.05
2024-01-10T03:19:56.940Z,47.16
2024-01-10T03:20:47.018Z,46.99
2024-01-10T03:21:37.094Z,46.96
2024-01-10T03:22:27.201Z,46.89
2024-01-10T03:23:17.242Z,46.85
2024-01-10T03:24:07.233Z,46.93
2024-01-10T03:24:57.274Z,47.02
2024-01-10T03:25:47.423Z,47.03
2024-01-10T03:26:37.416Z,46.90
2024-01-10T03:27:27.596Z,46.98
2024-01-10T03:28:17.640Z,46.94
2024-01-10T03:29:07.795Z,47.06
2024-01-10T03:29:57.748Z,46.99
2024-01-10T03:30:47.960Z,47.05
2024-01-10T03:31:37.916Z,46.81
2024-01-10T03:32:28.088Z,46.81
2024-01-10T03:33:18.082Z,46.99
2024-01-10T03:34:08.170Z,47.08
2024-01-10T03:34:58.117Z,46.97
2024-01-10T03:35:48.128Z,46.88
2024-01-10T03:36:38.181Z,47.07
2024-01-10T03:37:28.225Z,47.06
2024-01-10T03:38:18.415Z,47.03
2024-01-10T03:39:08.323Z,46.95
2024-01-10T03:39:58.355Z,46.77
2024-01-10T03:40:48.614Z,46.97
2024-01-10T03:41:38.586Z,46.94
2024-01-10T03:42:28.641Z,46.95
2024-01-10T03:43:18.689Z,46.91
2024-01-10T03:44:08.822Z,47.14
2024-01-10T03:44:58.757Z,47.13
2024-01-10T03:45:48.810Z,46.91
2024-01-10T03:46:38.909Z,46.71
2024-01-10T03:47:29.035Z,46.96
2024-01-10T03:48:19.040Z,46.94
2024-01-10T03:49:09.114Z,46.99
2024-01-10T03:49:59.134Z,47.11
2024-01-10T03:50:49.164Z,47.11
2024-01-10T03:51:39.220Z,47.15
2024-01-10T03:52:29.262Z,46.82
2024-01-10T03:53:19.352Z,46.94
2024-01-10T03:54:09.425Z,47.02
2024-01-10T03:54:59.463Z,47.03
2024-01-10T03:55:50.539Z,47.09
2024-01-10T03:56:39.608Z,46.98
2024-01-10T03:57:29.593Z,46.83
2024-01-10T03:58:19.630Z,47.00
2024-01-10T03:59:09.703Z,46.93
2024-01-10T03:59:59.736Z,47.07
2024-01-10T04:00:49.890Z,47.14
2024-01-10T04:01:39.918Z,47.21
2024-01-10T04:02:29.976Z,47.13
2024-01-10T04:03:20.037Z,47.22
2024-01-10T04:04:10.046Z,47.25
2024-01-10T04:05:00.260Z,47.07
2024-01-10T04:05:50.264Z,47.22
2024-01-10T04:06:40.212Z,47.21
2024-01-10T04:07:30.280Z,46.86
2024-01-10T04:08:20.420Z,47.10
2024-01-10T04:09:10.356Z,47.05
2024-01-10T04:10:00.415Z,47.09
2024-01-10T04:10:50.519Z,46.64
2024-01-10T04:11:40.555Z,46.99
2024-01-10T04:12:30.597Z,46.95
2024-01-10T04:13:20.626Z,46.94
2024-01-10T04:14:10.742Z,46.75
2024-01-10T04:15:00.751Z,46.93
2024-01-10T04:15:50.811Z,46.78
2024-01-10T04:16:40.937Z,46.90
2024-01-10T04:17:31.056Z,46.87
2024-01-10T04:18:21.163Z,46.82
2024-01-10T04:19:11.097Z,46.73
2024-01-10T04:20:01.088Z,46.86
2024-01-10T04:20:51.359Z,46.89
2024-01-10T04:21:41.338Z,46.99
2024-01-10T04:22:31.383Z,46.98
2024-01-10T04:23:21.561Z,46.61
2024-01-10T04:24:11.512Z,47.00
2024-01-10T04:25:01.540Z,47.00
2024-01-10T04:25:51.622Z,47.11
2024-01-10T04:26:41.653Z,47.03
2024-01-10T04:27:31.879Z,47.01
2024-01-10T04:28:21.898Z,47.13
2024-01-10T04:29:12.054Z,47.07
2024-01-10T04:30:02.001Z,46.81
2024-01-10T04:30:52.166Z,47.02
2024-01-10T04:31:42.173Z,47.11
2024-01-10T04:32:32.300Z,47.12
2024-01-10T04:33:22.314Z,47.21
2024-01-10T04:34:12.388Z,47.24
2024-01-10T04:35:02.401Z,47.25
2024-01-10T04:35:52.420Z,47.28
2024-01-10T04:36:42.498Z,47.30
2024-01-10T04:37:32.512Z,47.29
2024-01-10T04:38:22.681Z,47.25
2024-01-10T04:39:12.606Z,47.29
2024-01-10T04:40:02.651Z,47.32
2024-01-10T04:40:52.781Z,47.12
2024-01-10T04:41:42.784Z,47.18
2024-01-10T04:42:32.825Z,47.24
2024-01-10T04:43:22.870Z,47.23
2024-01-10T04:44:12.923Z,47.18
2024-01-10T04:45:02.945Z,47.13
2024-01-10T04:45:53.036Z,47.15
2024-01-10T04:46:43.103Z,47.16
2024-01-10T04:47:33.164Z,47.26
2024-01-10T04:48:23.235Z,47.32
2024-01-10T04:49:13.271Z,47.29
2024-01-10T04:50:03.319Z,47.29
2024-01-10T04:50:53.328Z,47.26
2024-01-10T04:51:43.382Z,47.21
2024-01-10T04:52:33.445Z,47.35
2024-01-10T04:53:23.585Z,47.42
2024-01-10T04:54:13.562Z,47.30
2024-01-10T04:55:03.593Z,47.28
2024-01-10T04:55:53.678Z,47.29
2024-01-10T04:56:43.689Z,47.39
2024-01-10T04:57:33.742Z,47.27
2024-01-10T04:58:23.771Z,47.09
2024-01-10T04:59:13.836Z,47.31
2024-01-10T05:00:03.861Z,47.21
2024-01-10T05:00:53.995Z,47.22
2024-01-10T05:01:44.027Z,47.17
2024-01-10T05:02:34.117Z,47.09
2024-01-10T05:03:24.135Z,47.21
2024-01-10T05:04:14.152Z,47.16
2024-01-10T05:05:04.331Z,46.94
2024-01-10T05:05:54.450Z,47.23
2024-01-10T05:06:44.359Z,47.05
2024-01-10T05:07:34.457Z,46.90
2024-01-10T05:08:24.520Z,46.91
2024-01-10T05:09:14.543Z,47.06
2024-01-10T05:10:04.578Z,47.08
2024-01-10T05:10:54.657Z,47.09
2024-01-10T05:11:45.201Z,47.09
2024-01-10T05:12:34.707Z,47.29
2024-01-10T05:13:24.754Z,47.24
2024-01-10T05:14:14.854Z,47.10
2024-01-10T05:15:04.880Z,47.23
2024-01-10T05:15:54.912Z,47.29
2024-01-10T05:16:45.003Z,47.23
2024-01-10T05:17:35.063Z,47.19
2024-01-10T05:18:25.072Z,47.17
2024-01-10T05:19:15.162Z,47.18
2024-01-10T05:20:05.202Z,47.27
2024-01-10T05:20:55.272Z,47.34
2024-01-10T05:21:45.364Z,47.11
2024-01-10T05:22:35.372Z,47.25
2024-01-10T05:23:25.464Z,47.17
2024-01-10T05:24:15.502Z,47.19
2024-01-10T05:25:05.580Z,47.30
2024-01-10T05:25:55.610Z,47.27
2024-01-10T05:26:45.628Z,47.24
2024-01-10T05:27:35.706Z,47.28
2024-01-10T05:28:25.740Z,47.18
2024-01-10T05:29:15.820Z,47.29
2024-01-10T05:30:05.873Z,47.23
2024-01-10T05:30:55.971Z,47.28
2024-01-10T05:31:46.214Z,47.38
2024-01-10T05:32:36.128Z,47.34
2024-01-10T05:33:26.174Z,47.31
2024-01-10T05:34:16.309Z,47.18
2024-01-10T05:35:06.363Z,47.27
2024-01-10T05:35:56.346Z,47.39
2024-01-10T05:36:46.434Z,47.03
2024-01-10T05:37:36.442Z,47.33
2024-01-10T05:38:26.525Z,47.24
2024-01-10T05:39:16.519Z,47.41
2024-01-10T05:40:06.588Z,47.19
2024-01-10T05:40:56.658Z,47.21
2024-01-10T05:41:47.061Z,47.37
2024-01-10T05:42:36.788Z,47.44
2024-01-10T05:43:26.812Z,47.13
2024-01-10T05:44:16.879Z,47.31
2024-01-10T05:45:06.899Z,47.25
2024-01-10T05:45:56.931Z,47.18
2024-01-10T05:46:47.011Z,47.08
2024-01-10T05:47:37.098Z,47.15
2024-01-10T05:48:27.121Z,47.24
2024-01-10T05:49:17.220Z,47.21
2024-01-10T05:50:07.240Z,47.04
2024-01-10T05:50:57.247Z,47.22
2024-01-10T05:51:47.382Z,47.27
2024-01-10T05:52:37.449Z,47.26
2024-01-10T05:53:27.568Z,47.29
2024-01-10T05:54:17.528Z,47.25
2024-01-10T05:55:07.574Z,47.22
2024-01-10T05:55:57.719Z,47.23
2024-01-10T05:56:47.699Z,47.31
2024-01-10T05:57:37.735Z,47.41
2024-01-10T05:58:27.799Z,47.31
2024-01-10T05:59:17.999Z,47.23
2024-01-10T06:00:07.897Z,47.28
2024-01-10T06:00:57.986Z,47.18
2024-01-10T06:01:48.030Z,47.27
2024-01-10T06:02:38.084Z,47.32
2024-01-10T06:03:28.146Z,47.19
2024-01-10T06:04:18.163Z,47.14
2024-01-10T06:05:08.307Z,47.08
2024-01-10T06:05:58.386Z,47.15
2024-01-10T06:06:48.393Z,47.19
2024-01-10T06:07:38.446Z,47.07
2024-01-10T06:08:28.511Z,47.15
2024-01-10T06:09:18.545Z,47.13
2024-01-10T06:10:08.597Z,47.25
2024-01-10T06:10:58.687Z,47.35
2024-01-10T06:11:48.738Z,47.23
2024-01-10T06:12:38.752Z,47.16
2024-01-10T06:13:35.242Z,47.19
2024-01-10T06:14:19.869Z,47.26
2024-01-10T06:15:08.892Z,47.19
2024-01-10T06:15:58.966Z,47.18
2024-01-10T06:16:49.101Z,47.22
2024-01-10T06:17:39.270Z,47.28
2024-01-10T06:18:29.209Z,47.33
2024-01-10T06:19:19.257Z,47.37
2024-01-10T06:20:09.500Z,47.34
2024-01-10T06:21:00.398Z,47.39
2024-01-10T06:21:49.588Z,47.38
2024-01-10T06:22:39.773Z,47.27
2024-01-10T06:23:29.694Z,47.12
2024-01-10T06:24:19.694Z,47.08
2024-01-10T06:25:09.771Z,47.27
2024-01-10T06:25:59.851Z,47.26
2024-01-10T06:26:50.039Z,47.25
2024-01-10T06:27:40.097Z,47.25
2024-01-10T06:28:30.128Z,47.26
2024-01-10T06:29:20.253Z,47.26
2024-01-10T06:30:10.246Z,47.20
2024-01-10T06:31:00.330Z,47.11
2024-01-10T06:31:50.355Z,47.28
2024-01-10T06:32:40.458Z,47.16
2024-01-10T06:33:30.522Z,47.29
2024-01-10T06:34:20.586Z,47.26
2024-01-10T06:35:10.655Z,47.32
2024-01-10T06:36:00.643Z,47.29
2024-01-10T06:36:50.700Z,47.30
2024-01-10T06:37:41.013Z,47.13
2024-01-10T06:38:30.903Z,47.16
2024-01-10T06:39:20.993Z,47.25
2024-01-10T06:40:10.976Z,47.24
2024-01-10T06:41:01.095Z,47.34
2024-01-10T06:41:51.075Z,47.26
2024-01-10T06:42:41.113Z,47.25
2024-01-10T06:43:31.176Z,47.34
2024-01-10T06:44:21.228Z,47.22
2024-01-10T06:45:11.238Z,47.21
2024-01-10T06:46:01.274Z,47.12
2024-01-10T06:46:51.506Z,47.32
2024-01-10T06:47:42.690Z,47.28
2024-01-10T06:48:31.550Z,47.28
2024-01-10T06:49:21.604Z,47.29
2024-01-10T06:50:11.711Z,47.38
2024-01-10T06:51:01.991Z,47.40
2024-01-10T06:51:52.087Z,47.46
2024-01-10T06:52:42.120Z,47.47
2024-01-10T06:53:32.225Z,47.46
2024-01-10T06:54:22.191Z,47.42
2024-01-10T06:55:12.231Z,47.38
2024-01-10T06:56:02.345Z,47.41
2024-01-10T06:56:52.330Z,47.48
2024-01-10T06:57:42.509Z,47.51
2024-01-10T06:58:32.560Z,47.45
2024-01-10T06:59:22.687Z,47.38
2024-01-10T07:00:12.861Z,47.42
2024-01-10T07:01:02.753Z,47.27
2024-01-10T07:01:52.832Z,47.31
2024-01-10T07:02:42.805Z,47.49
2024-01-10T07:03:32.923Z,47.46
2024-01-10T07:04:24.953Z,47.46
2024-01-10T07:05:13.263Z,47.53
2024-01-10T07:06:03.280Z,47.53
2024-01-10T07:06:53.500Z,47.44
2024-01-10T07:07:43.433Z,47.52
2024-01-10T07:08:33.407Z,47.45
2024-01-10T07:09:23.499Z,47.35
2024-01-10T07:10:13.527Z,47.38
2024-01-10T07:11:03.621Z,47.48
2024-01-10T07:11:53.657Z,47.46
2024-01-10T07:12:43.705Z,47.49
2024-01-10T07:13:33.734Z,47.51
2024-01-10T07:14:23.895Z,47.52
2024-01-10T07:15:13.859Z,47.52
2024-01-10T07:16:03.919Z,47.39
2024-01-10T07:16:54.071Z,47.54
2024-01-10T07:17:44.185Z,47.51
2024-01-10T07:18:34.221Z,47.50
2024-01-10T07:19:24.225Z,47.35
2024-01-10T07:20:14.336Z,47.35
2024-01-10T07:21:04.255Z,47.38
2024-01-10T07:21:54.332Z,47.48
2024-01-10T07:22:44.594Z,47.44
2024-01-10T07:23:34.609Z,47.41
2024-01-10T07:24:24.652Z,47.42
2024-01-10T07:25:14.706Z,47.40
2024-01-10T07:26:04.822Z,47.38
2024-01-10T07:26:54.802Z,47.36
2024-01-10T07:27:44.853Z,47.38
2024-01-10T07:28:34.897Z,47.44
2024-01-10T07:29:25.143Z,47.53
2024-01-10T07:30:15.394Z,47.58
2024-01-10T07:31:05.205Z,47.59
2024-01-10T07:31:55.153Z,47.49
2024-01-10T07:32:45.393Z,47.53
2024-01-10T07:33:35.322Z,47.38
2024-01-10T07:34:25.324Z,47.29
2024-01-10T07:35:15.552Z,47.22
2024-01-10T07:36:05.417Z,47.33
2024-01-10T07:36:55.518Z,47.48
2024-01-10T07:37:45.653Z,47.51
2024-01-10T07:38:35.607Z,47.44
2024-01-10T07:39:25.681Z,47.45
2024-01-10T07:40:15.752Z,47.49
2024-01-10T07:41:05.810Z,47.44
2024-01-10T07:41:55.883Z,47.52
2024-01-10T07:42:46.165Z,47.46
2024-01-10T07:43:36.211Z,47.45
2024-01-10T07:44:26.301Z,47.42
2024-01-10T07:45:16.309Z,47.40
2024-01-10T07:46:06.342Z,47.40
2024-01-10T07:46:56.480Z,47.46
2024-01-10T07:47:46.503Z,47.53
2024-01-10T07:48:36.578Z,47.47
2024-01-10T07:49:26.647Z,47.62
2024-01-10T07:50:16.744Z,47.63
2024-01-10T07:51:06.729Z,47.64
2024-01-10T07:51:56.811Z,47.61
2024-01-10T07:52:46.836Z,47.60
2024-01-10T07:53:36.866Z,47.61
2024-01-10T07:54:26.888Z,47.68
2024-01-10T07:55:16.996Z,47.67
2024-01-10T07:56:07.144Z,47.59
2024-01-10T07:56:57.171Z,47.56
2024-01-10T07:57:47.209Z,47.59
2024-01-10T07:58:37.244Z,47.63
2024-01-10T07:59:27.301Z,47.57
2024-01-10T08:00:17.364Z,47.62
2024-01-10T08:01:07.407Z,47.52
2024-01-10T08:01:57.583Z,47.61
2024-01-10T08:02:47.536Z,47.61
2024-01-10T08:03:37.589Z,47.54
2024-01-10T08:04:27.593Z,47.62
2024-01-10T08:05:17.784Z,47.67
2024-01-10T08:06:15.043Z,47.67
2024-01-10T08:06:58.855Z,47.78
2024-01-10T08:07:47.852Z,47.72
2024-01-10T08:08:37.852Z,47.63
2024-01-10T08:09:27.918Z,47.46
2024-01-10T08:10:17.992Z,47.63
2024-01-10T08:11:08.088Z,47.65
2024-01-10T08:11:58.109Z,47.51
2024-01-10T08:12:48.413Z,47.67
2024-01-10T08:13:38.506Z,47.66
2024-01-10T08:14:28.595Z,47.66
2024-01-10T08:15:18.560Z,47.60
2024-01-10T08:16:08.643Z,47.62
2024-01-10T08:16:58.788Z,47.65
2024-01-10T08:17:48.880Z,47.65
2024-01-10T08:18:38.940Z,47.71
2024-01-10T08:19:28.898Z,47.74
2024-01-10T08:20:18.980Z,47.68
2024-01-10T08:21:09.079Z,47.72
2024-01-10T08:21:59.129Z,47.73
2024-01-10T08:22:49.177Z,47.76
2024-01-10T08:23:39.199Z,47.79
2024-01-10T08:24:29.253Z,47.68
2024-01-10T08:25:19.284Z,47.77
2024-01-10T08:26:09.548Z,47.82
2024-01-10T08:26:59.366Z,47.77
2024-01-10T08:27:49.452Z,47.63
2024-01-10T08:28:39.535Z,47.76
2024-01-10T08:29:29.627Z,47.80
2024-01-10T08:30:19.640Z,47.78
2024-01-10T08:31:09.711Z,47.80
2024-01-10T08:31:59.839Z,47.84
2024-01-10T08:32:50.098Z,47.74
2024-01-10T08:33:39.875Z,47.76
2024-01-10T08:34:30.002Z,47.73
2024-01-10T08:35:20.010Z,47.61
2024-01-10T08:36:10.028Z,47.73
2024-01-10T08:37:00.077Z,47.74
2024-01-10T08:37:50.146Z,47.83
2024-01-10T08:38:40.277Z,47.80
2024-01-10T08:39:30.220Z,47.74
2024-01-10T08:40:20.242Z,47.71
2024-01-10T08:41:10.423Z,47.78
2024-01-10T08:42:00.418Z,47.75
2024-01-10T08:42:50.474Z,47.77
2024-01-10T08:43:40.594Z,47.67
2024-01-10T08:44:30.638Z,47.73
2024-01-10T08:45:20.604Z,47.69
2024-01-10T08:46:10.647Z,47.64
2024-01-10T08:47:00.736Z,47.71
2024-01-10T08:47:51.103Z,47.71
2024-01-10T08:48:41.189Z,47.71
2024-01-10T08:49:31.156Z,47.65
2024-01-10T08:50:21.191Z,47.62
2024-01-10T08:51:11.267Z,47.66
2024-01-10T08:52:01.228Z,47.58
2024-01-10T08:52:51.290Z,47.66
2024-01-10T08:53:41.326Z,47.62
2024-01-10T08:54:32.549Z,47.66
2024-01-10T08:55:21.604Z,47.52
2024-01-10T08:56:11.693Z,47.49
2024-01-10T08:57:01.742Z,47.50
2024-01-10T08:57:51.791Z,47.47
2024-01-10T08:58:41.841Z,47.50
2024-01-10T08:59:31.941Z,47.53
2024-01-10T09:00:21.924Z,47.48
2024-01-10T09:01:12.124Z,47.61
2024-01-10T09:02:02.199Z,47.57
2024-01-10T09:02:52.180Z,47.48
2024-01-10T09:03:42.272Z,47.62
2024-01-10T09:04:34.429Z,47.55
2024-01-10T09:05:22.443Z,47.64
2024-01-10T09:06:12.895Z,47.53
2024-01-10T09:07:02.683Z,47.39
2024-01-10T09:07:52.681Z,47.33
2024-01-10T09:08:42.771Z,47.43
2024-01-10T09:09:32.761Z,47.63
2024-01-10T09:10:22.814Z,47.39
2024-01-10T09:11:13.007Z,47.40
2024-01-10T09:12:02.894Z,47.53
2024-01-10T09:12:53.036Z,47.44
2024-01-10T09:13:43.083Z,47.42
2024-01-10T09:14:33.169Z,47.21
2024-01-10T09:15:23.170Z,47.51
2024-01-10T09:16:13.200Z,47.40
2024-01-10T09:17:03.256Z,47.49
2024-01-10T09:17:53.403Z,47.46
2024-01-10T09:18:43.436Z,47.18
2024-01-10T09:19:33.472Z,47.39
2024-01-10T09:20:23.553Z,47.36
2024-01-10T09:21:13.518Z,47.44
2024-01-10T09:22:03.612Z,47.17
2024-01-10T09:22:53.704Z,47.49
2024-01-10T09:23:43.702Z,47.56
2024-01-10T09:24:33.776Z,47.46
2024-01-10T09:25:23.810Z,47.28
2024-01-10T09:26:13.994Z,47.26
2024-01-10T09:27:04.001Z,47.54
2024-01-10T09:27:54.059Z,47.45
2024-01-10T09:28:44.151Z,47.38
2024-01-10T09:29:34.149Z,47.46
2024-01-10T09:30:24.201Z,47.56
2024-01-10T09:31:14.433Z,47.35
2024-01-10T09:32:04.507Z,47.43
2024-01-10T09:32:54.592Z,47.49
2024-01-10T09:33:44.621Z,47.56
2024-01-10T09:34:34.519Z,47.29
2024-01-10T09:35:24.744Z,47.47
2024-01-10T09:36:14.622Z,47.20
2024-01-10T09:37:04.655Z,47.26
2024-01-10T09:37:54.812Z,47.26
2024-01-10T09:38:44.745Z,47.44
2024-01-10T09:39:34.786Z,47.29
2024-01-10T09:40:24.829Z,47.41
2024-01-10T09:41:14.945Z,47.47
2024-01-10T09:42:05.472Z,47.31
2024-01-10T09:42:55.012Z,47.48
2024-01-10T09:43:45.103Z,47.38
2024-01-10T09:44:35.109Z,47.28
2024-01-10T09:45:25.137Z,47.35
2024-01-10T09:46:15.207Z,47.40
2024-01-10T09:47:05.287Z,47.50
2024-01-10T09:47:55.390Z,47.56
2024-01-10T09:48:45.453Z,47.54
2024-01-10T09:49:35.478Z,47.51
2024-01-10T09:50:25.547Z,47.29
2024-01-10T09:51:15.497Z,47.49
2024-01-10T09:52:05.745Z,47.33
2024-01-10T09:52:55.834Z,47.43
2024-01-10T09:53:45.873Z,47.20
2024-01-10T09:54:35.976Z,47.26
2024-01-10T09:55:26.185Z,47.48
2024-01-10T09:56:16.057Z,47.37
2024-01-10T09:57:06.087Z,47.31
2024-01-10T09:57:56.191Z,47.56
2024-01-10T09:58:46.340Z,47.45
2024-01-10T09:59:36.351Z,47.44
2024-01-10T10:00:26.392Z,47.22
2024-01-10T10:01:16.552Z,47.41
2024-01-10T10:02:06.557Z,47.51
2024-01-10T10:02:56.617Z,47.58
2024-01-10T10:03:46.665Z,47.49
2024-01-10T10:04:36.685Z,47.35
2024-01-10T10:05:26.982Z,47.30
2024-01-10T10:06:16.944Z,47.39
2024-01-10T10:07:07.021Z,47.37
2024-01-10T10:07:57.137Z,47.44
2024-01-10T10:08:47.030Z,47.47
2024-01-10T10:09:37.078Z,47.53
2024-01-10T10:10:27.095Z,47.53
2024-01-10T10:11:17.178Z,47.49
2024-01-10T10:12:07.404Z,47.69
2024-01-10T10:12:57.488Z,47.49
2024-01-10T10:13:47.550Z,47.61
2024-01-10T10:14:37.541Z,47.52
2024-01-10T10:15:27.808Z,47.40
2024-01-10T10:16:17.610Z,47.37
2024-01-10T10:17:07.682Z,47.36
2024-01-10T10:17:57.808Z,47.59
2024-01-10T10:18:51.371Z,47.62
2024-01-10T10:19:41.354Z,47.66
2024-01-10T10:20:34.264Z,47.71
2024-01-10T10:21:18.017Z,47.67
2024-01-10T10:22:08.085Z,47.43
2024-01-10T10:22:58.231Z,47.69
2024-01-10T10:23:48.226Z,47.70
2024-01-10T10:24:38.556Z,47.61
2024-01-10T10:25:28.641Z,47.72
2024-01-10T10:26:18.688Z,47.76
2024-01-10T10:27:08.701Z,47.74
2024-01-10T10:27:58.763Z,47.81
2024-01-10T10:28:48.817Z,47.77
2024-01-10T10:29:39.076Z,47.83
2024-01-10T10:30:28.981Z,47.84
2024-01-10T10:31:18.999Z,47.84
2024-01-10T10:32:09.061Z,47.81
2024-01-10T10:32:59.226Z,47.85
2024-01-10T10:33:49.219Z,47.91
2024-01-10T10:34:39.202Z,47.89
2024-01-10T10:35:37.022Z,47.88
2024-01-10T10:36:20.298Z,47.95
2024-01-10T10:37:09.421Z,47.99
2024-01-10T10:37:59.430Z,47.99
2024-01-10T10:38:49.440Z,47.98
2024-01-10T10:39:39.512Z,48.02
2024-01-10T10:40:29.583Z,47.89
2024-01-10T10:41:19.693Z,47.97
2024-01-10T10:42:09.845Z,47.97
2024-01-10T10:42:59.893Z,47.97
2024-01-10T10:43:49.979Z,47.91
2024-01-10T10:44:39.987Z,47.91